Time;durP1;ratioP1;P1;durP2;ratioP2;P2;SDS_P1;SDS_P2;PMS_P1;PMS_P2;Temp;Humidity;BMP_temperature;BMP_pressure;BME280_temperature;BME280_humidity;BME280_pressure;Samples;Min_cycle;Max_cycle;Signal;HPM_P1;HPM_P2
2021/04/26 00:00:11;;;;;;;18.60;5.05;;;;;;;;;;5001469;28;20069;-61
2021/04/26 00:02:38;;;;;;;23.17;5.93;;;;;;;;;;5002505;28;20021;-65
2021/04/26 00:05:06;;;;;;;32.85;5.65;;;;;;;;;;4996181;28;20025;-65
2021/04/26 00:07:33;;;;;;;30.48;7.30;;;;;;;;;;4986968;28;20078;-66
2021/04/26 00:10:01;;;;;;;29.80;6.95;;;;;;;;;;4989426;28;20053;-61
2021/04/26 00:12:28;;;;;;;33.25;7.80;;;;;;;;;;4989565;28;20129;-60
2021/04/26 00:14:55;;;;;;;30.20;7.55;;;;;;;;;;4990326;28;20769;-62
2021/04/26 00:17:22;;;;;;;35.70;7.95;;;;;;;;;;4985350;28;20031;-60
2021/04/26 00:19:49;;;;;;;26.35;7.28;;;;;;;;;;4990116;28;20105;-62
2021/04/26 00:22:16;;;;;;;47.80;9.30;;;;;;;;;;4986080;28;20033;-62
2021/04/26 00:24:43;;;;;;;28.35;7.70;;;;;;;;;;4986547;28;20030;-62
2021/04/26 00:27:10;;;;;;;26.38;9.00;;;;;;;;;;4997298;28;20030;-60
2021/04/26 00:29:37;;;;;;;32.15;8.02;;;;;;;;;;4999313;28;20056;-61
2021/04/26 00:32:04;;;;;;;25.48;8.70;;;;;;;;;;4987659;28;20048;-61
2021/04/26 00:34:31;;;;;;;21.50;8.15;;;;;;;;;;4985666;28;20414;-61
2021/04/26 00:36:59;;;;;;;29.60;8.15;;;;;;;;;;4987333;28;20026;-60
2021/04/26 00:39:27;;;;;;;20.60;7.40;;;;;;;;;;4994365;28;20018;-60
2021/04/26 00:41:54;;;;;;;27.38;8.10;;;;;;;;;;5001970;28;20027;-60
2021/04/26 00:44:21;;;;;;;23.95;7.97;;;;;;;;;;5004381;28;20112;-60
2021/04/26 00:46:48;;;;;;;26.38;8.02;;;;;;;;;;5000833;28;20506;-62
2021/04/26 00:49:21;;;;;;;23.13;7.82;;;;;;;;;;4999253;28;20029;-61
2021/04/26 00:51:48;;;;;;;24.52;8.43;;;;;;;;;;4999773;28;20391;-61
2021/04/26 00:54:15;;;;;;;25.05;7.55;;;;;;;;;;4994238;28;20023;-61
2021/04/26 00:56:43;;;;;;;19.35;7.65;;;;;;;;;;4987342;28;20419;-62
2021/04/26 00:59:10;;;;;;;28.83;7.53;;;;;;;;;;4998502;28;20063;-62
2021/04/26 01:01:37;;;;;;;20.40;7.40;;;;;;;;;;5003229;28;20048;-63
2021/04/26 01:04:04;;;;;;;30.88;7.60;;;;;;;;;;4995701;28;20116;-63
2021/04/26 01:06:31;;;;;;;21.02;7.55;;;;;;;;;;4996017;28;20033;-65
2021/04/26 01:08:59;;;;;;;26.67;7.65;;;;;;;;;;4986990;28;20105;-64
2021/04/26 01:11:29;;;;;;;24.45;7.72;;;;;;;;;;4985911;28;20038;-62
2021/04/26 01:14:10;;;;;;;24.05;7.85;;;;;;;;;;4990762;28;20026;-62
2021/04/26 01:16:44;;;;;;;23.73;6.50;;;;;;;;;;4989992;28;20025;-64
2021/04/26 01:19:30;;;;;;;26.20;8.40;;;;;;;;;;4991785;28;20108;-65
2021/04/26 01:22:15;;;;;;;27.10;7.75;;;;;;;;;;4990212;28;20545;-61
2021/04/26 01:24:48;;;;;;;22.70;8.18;;;;;;;;;;4991828;28;20521;-61
2021/04/26 01:27:18;;;;;;;29.23;8.23;;;;;;;;;;4990298;28;20462;-60
2021/04/26 01:30:03;;;;;;;28.58;6.90;;;;;;;;;;4974806;28;20018;-60
2021/04/26 01:32:44;;;;;;;27.25;6.85;;;;;;;;;;4992015;28;20038;-64
2021/04/26 01:35:15;;;;;;;27.05;7.10;;;;;;;;;;4991443;28;20027;-64
2021/04/26 01:37:43;;;;;;;28.35;7.13;;;;;;;;;;4992588;28;20027;-61
2021/04/26 01:40:13;;;;;;;29.60;7.00;;;;;;;;;;4992812;28;20018;-64
2021/04/26 01:42:42;;;;;;;17.60;7.07;;;;;;;;;;4974253;28;20026;-62
2021/04/26 01:45:11;;;;;;;21.15;6.82;;;;;;;;;;4992587;28;20058;-65
2021/04/26 01:47:40;;;;;;;36.13;7.38;;;;;;;;;;4992236;28;20034;-62
2021/04/26 01:50:09;;;;;;;24.08;6.97;;;;;;;;;;4992321;28;20441;-65
2021/04/26 01:52:36;;;;;;;25.52;7.00;;;;;;;;;;4984569;28;20062;-65
2021/04/26 01:55:05;;;;;;;21.20;6.97;;;;;;;;;;4992118;28;20105;-64
2021/04/26 01:57:33;;;;;;;24.50;6.70;;;;;;;;;;4992052;28;20030;-64
2021/04/26 02:00:02;;;;;;;21.63;6.47;;;;;;;;;;5010056;28;20688;-66
2021/04/26 02:02:29;;;;;;;17.25;6.50;;;;;;;;;;5011881;28;20080;-65
2021/04/26 02:04:57;;;;;;;23.10;6.78;;;;;;;;;;4978625;28;20022;-64
2021/04/26 02:07:25;;;;;;;18.05;6.38;;;;;;;;;;5012211;28;20057;-66
2021/04/26 02:09:52;;;;;;;15.32;6.25;;;;;;;;;;5011897;28;20500;-66
2021/04/26 02:12:20;;;;;;;19.23;6.88;;;;;;;;;;5012057;28;20092;-66
2021/04/26 02:14:47;;;;;;;22.88;6.70;;;;;;;;;;5012186;28;20026;-65
2021/04/26 02:17:14;;;;;;;22.42;6.60;;;;;;;;;;5012218;28;20022;-65
2021/04/26 02:19:41;;;;;;;16.73;6.53;;;;;;;;;;5012198;28;20018;-64
2021/04/26 02:22:10;;;;;;;19.25;6.93;;;;;;;;;;5011873;28;20033;-63
2021/04/26 02:24:38;;;;;;;18.10;6.10;;;;;;;;;;5012043;28;20482;-66
2021/04/26 02:27:05;;;;;;;16.13;6.28;;;;;;;;;;5011802;28;20033;-63
2021/04/26 02:29:32;;;;;;;13.35;6.43;;;;;;;;;;5012094;28;20569;-63
2021/04/26 02:32:00;;;;;;;15.77;6.75;;;;;;;;;;5011897;28;20037;-64
2021/04/26 02:34:30;;;;;;;13.63;5.90;;;;;;;;;;5011194;28;20033;-63
2021/04/26 02:37:02;;;;;;;17.52;6.35;;;;;;;;;;5012000;28;20026;-61
2021/04/26 02:39:31;;;;;;;11.90;5.88;;;;;;;;;;5011843;28;20076;-61
2021/04/26 02:41:58;;;;;;;12.60;5.97;;;;;;;;;;5011680;28;20030;-61
2021/04/26 02:44:29;;;;;;;13.30;5.82;;;;;;;;;;5011590;28;20022;-61
2021/04/26 02:47:07;;;;;;;16.48;6.40;;;;;;;;;;5011210;28;20033;-63
2021/04/26 02:49:35;;;;;;;15.63;6.38;;;;;;;;;;5011845;28;20041;-63
2021/04/26 02:52:02;;;;;;;10.52;5.85;;;;;;;;;;5011526;28;20496;-63
2021/04/26 02:54:29;;;;;;;14.93;6.60;;;;;;;;;;5008713;28;20041;-61
2021/04/26 02:56:58;;;;;;;15.85;6.32;;;;;;;;;;5016801;28;20561;-62
2021/04/26 02:59:25;;;;;;;18.40;6.45;;;;;;;;;;5001551;28;20133;-63
2021/04/26 03:01:53;;;;;;;10.35;5.82;;;;;;;;;;4994949;28;20061;-63
2021/04/26 03:04:21;;;;;;;14.13;6.03;;;;;;;;;;4994429;28;20027;-62
2021/04/26 03:06:49;;;;;;;12.40;5.88;;;;;;;;;;4995160;28;20029;-63
2021/04/26 03:09:16;;;;;;;12.63;6.25;;;;;;;;;;4994549;28;20029;-64
2021/04/26 03:11:44;;;;;;;13.57;6.10;;;;;;;;;;4994062;28;20537;-64
2021/04/26 03:14:12;;;;;;;12.00;6.15;;;;;;;;;;4994849;28;20030;-62
2021/04/26 03:16:40;;;;;;;16.17;6.40;;;;;;;;;;4993758;28;20463;-65
2021/04/26 03:19:08;;;;;;;13.50;6.55;;;;;;;;;;4994911;28;20054;-61
2021/04/26 03:21:36;;;;;;;12.75;6.82;;;;;;;;;;4994735;28;20034;-65
2021/04/26 03:24:04;;;;;;;12.45;6.25;;;;;;;;;;4981399;28;20051;-63
2021/04/26 03:26:34;;;;;;;11.40;6.38;;;;;;;;;;4974876;28;20023;-62
2021/04/26 03:29:02;;;;;;;14.93;6.32;;;;;;;;;;4975223;28;20117;-62
2021/04/26 03:31:30;;;;;;;12.23;6.50;;;;;;;;;;4974834;28;20029;-64
2021/04/26 03:33:59;;;;;;;13.77;6.57;;;;;;;;;;4975506;28;20034;-63
2021/04/26 03:36:26;;;;;;;13.30;6.32;;;;;;;;;;4974771;28;20023;-63
2021/04/26 03:38:54;;;;;;;14.27;6.40;;;;;;;;;;4957776;28;20030;-63
2021/04/26 03:41:21;;;;;;;12.55;6.50;;;;;;;;;;4974855;28;20097;-63
2021/04/26 03:43:49;;;;;;;15.77;6.57;;;;;;;;;;4975220;28;20023;-66
2021/04/26 03:46:16;;;;;;;13.02;6.43;;;;;;;;;;4957733;28;20031;-64
2021/04/26 03:48:43;;;;;;;10.82;6.47;;;;;;;;;;4975083;28;20034;-66
2021/04/26 03:51:10;;;;;;;11.20;6.30;;;;;;;;;;4974476;28;20062;-64
2021/04/26 03:53:37;;;;;;;12.60;6.43;;;;;;;;;;4980287;28;20038;-65
2021/04/26 03:56:04;;;;;;;15.73;6.55;;;;;;;;;;4976450;28;20041;-63
2021/04/26 03:58:31;;;;;;;13.23;6.68;;;;;;;;;;4993987;28;20046;-64
2021/04/26 04:00:58;;;;;;;12.75;6.70;;;;;;;;;;4994402;28;20056;-65
2021/04/26 04:03:25;;;;;;;11.23;7.07;;;;;;;;;;4994003;28;20026;-64
2021/04/26 04:05:52;;;;;;;14.55;7.03;;;;;;;;;;4992995;28;20023;-65
2021/04/26 04:08:21;;;;;;;11.68;6.78;;;;;;;;;;4993646;28;20502;-65
2021/04/26 04:10:48;;;;;;;11.43;6.85;;;;;;;;;;4976546;28;20469;-63
2021/04/26 04:13:15;;;;;;;10.88;6.88;;;;;;;;;;4993478;28;20030;-66
2021/04/26 04:15:42;;;;;;;11.65;6.60;;;;;;;;;;4994020;28;20387;-61
2021/04/26 04:18:09;;;;;;;12.60;7.63;;;;;;;;;;4993533;28;20014;-62
2021/04/26 04:20:36;;;;;;;15.32;7.75;;;;;;;;;;4993916;28;20105;-62
2021/04/26 04:23:03;;;;;;;13.93;6.97;;;;;;;;;;4993652;28;20060;-61
2021/04/26 04:25:30;;;;;;;14.18;7.55;;;;;;;;;;4993920;28;20099;-61
2021/04/26 04:27:58;;;;;;;13.05;7.63;;;;;;;;;;4993339;28;20529;-61
2021/04/26 04:30:25;;;;;;;11.20;7.65;;;;;;;;;;4994000;28;20487;-63
2021/04/26 04:32:52;;;;;;;12.27;7.68;;;;;;;;;;4993272;28;20034;-62
2021/04/26 04:35:19;;;;;;;11.98;7.20;;;;;;;;;;4993497;28;20098;-61
2021/04/26 04:37:46;;;;;;;11.10;7.07;;;;;;;;;;4993633;28;20153;-63
2021/04/26 04:40:13;;;;;;;13.65;7.60;;;;;;;;;;4993186;28;20505;-60
2021/04/26 04:42:40;;;;;;;12.40;8.02;;;;;;;;;;4993639;28;20030;-63
2021/04/26 04:45:07;;;;;;;13.65;7.43;;;;;;;;;;4993129;28;20352;-62
2021/04/26 04:47:34;;;;;;;12.10;7.35;;;;;;;;;;4993159;28;20022;-60
2021/04/26 04:50:01;;;;;;;13.18;7.43;;;;;;;;;;4992902;28;20386;-63
2021/04/26 04:52:28;;;;;;;9.82;6.78;;;;;;;;;;4993459;28;20451;-61
2021/04/26 04:54:55;;;;;;;14.20;7.60;;;;;;;;;;4992752;28;20022;-60
2021/04/26 04:57:22;;;;;;;12.20;7.03;;;;;;;;;;4993078;28;20017;-62
2021/04/26 04:59:49;;;;;;;9.95;6.43;;;;;;;;;;5008918;28;20506;-61
2021/04/26 05:02:16;;;;;;;11.48;7.13;;;;;;;;;;5012820;28;20438;-60
2021/04/26 05:04:43;;;;;;;10.60;6.80;;;;;;;;;;5012215;28;20062;-62
2021/04/26 05:07:10;;;;;;;12.35;6.90;;;;;;;;;;5012573;28;20014;-60
2021/04/26 05:09:37;;;;;;;13.27;7.30;;;;;;;;;;5012163;28;20486;-59
2021/04/26 05:12:05;;;;;;;11.70;7.53;;;;;;;;;;5012405;28;20474;-61
2021/04/26 05:14:32;;;;;;;12.13;6.75;;;;;;;;;;5012646;28;20088;-59
2021/04/26 05:16:59;;;;;;;15.10;7.28;;;;;;;;;;5011802;28;20081;-60
2021/04/26 05:19:26;;;;;;;11.18;7.18;;;;;;;;;;5012355;28;20037;-61
2021/04/26 05:21:53;;;;;;;11.20;6.50;;;;;;;;;;5012186;28;20516;-60
2021/04/26 05:24:20;;;;;;;13.52;6.93;;;;;;;;;;5012650;28;20010;-64
2021/04/26 05:26:47;;;;;;;11.60;6.85;;;;;;;;;;5011799;28;20022;-59
2021/04/26 05:29:14;;;;;;;12.95;6.80;;;;;;;;;;5012165;28;20028;-60
2021/04/26 05:31:41;;;;;;;13.23;7.32;;;;;;;;;;5011884;28;20068;-61
2021/04/26 05:34:08;;;;;;;11.63;7.30;;;;;;;;;;5012210;28;20079;-61
2021/04/26 05:36:35;;;;;;;11.80;7.22;;;;;;;;;;5011650;28;20018;-65
2021/04/26 05:39:02;;;;;;;10.35;6.28;;;;;;;;;;5011961;28;20025;-64
2021/04/26 05:41:29;;;;;;;13.90;7.38;;;;;;;;;;5011741;28;20024;-66
2021/04/26 05:43:56;;;;;;;11.18;6.90;;;;;;;;;;5012293;28;20065;-65
2021/04/26 05:46:24;;;;;;;10.27;6.97;;;;;;;;;;5011808;28;20018;-65
2021/04/26 05:48:51;;;;;;;9.75;6.25;;;;;;;;;;5011784;28;20030;-65
2021/04/26 05:51:18;;;;;;;8.55;6.10;;;;;;;;;;5011561;28;20013;-65
2021/04/26 05:53:45;;;;;;;9.57;6.35;;;;;;;;;;5012153;28;20030;-65
2021/04/26 05:56:12;;;;;;;9.07;6.43;;;;;;;;;;5011626;28;20014;-63
2021/04/26 05:58:39;;;;;;;12.52;6.15;;;;;;;;;;5011412;28;20072;-64
2021/04/26 06:01:06;;;;;;;11.32;6.40;;;;;;;;;;5011941;28;20053;-65
2021/04/26 06:03:34;;;;;;;11.07;6.60;;;;;;;;;;5011441;28;20036;-65
2021/04/26 06:06:01;;;;;;;7.93;5.88;;;;;;;;;;5011960;28;20141;-64
2021/04/26 06:08:29;;;;;;;7.70;5.90;;;;;;;;;;5011344;28;20526;-66
2021/04/26 06:10:56;;;;;;;12.43;6.28;;;;;;;;;;5011599;28;20026;-62
2021/04/26 06:13:23;;;;;;;9.43;5.82;;;;;;;;;;5011360;28;20038;-64
2021/04/26 06:15:50;;;;;;;9.32;6.45;;;;;;;;;;5011828;28;20425;-64
2021/04/26 06:18:20;;;;;;;8.88;6.00;;;;;;;;;;5006125;28;20092;-64
2021/04/26 06:20:48;;;;;;;9.18;6.20;;;;;;;;;;5010889;28;20467;-64
2021/04/26 06:23:15;;;;;;;7.63;5.53;;;;;;;;;;5011781;28;20077;-66
2021/04/26 06:25:43;;;;;;;11.35;6.35;;;;;;;;;;5011069;28;20418;-64
2021/04/26 06:28:10;;;;;;;10.55;5.95;;;;;;;;;;5011648;28;20029;-63
2021/04/26 06:30:38;;;;;;;9.98;5.95;;;;;;;;;;5014988;28;20486;-64
2021/04/26 06:33:06;;;;;;;11.05;5.95;;;;;;;;;;5016003;28;20117;-66
2021/04/26 06:35:33;;;;;;;10.68;6.10;;;;;;;;;;5026898;28;20504;-65
2021/04/26 06:38:00;;;;;;;8.27;5.68;;;;;;;;;;5035505;28;20056;-62
2021/04/26 06:40:27;;;;;;;8.60;6.00;;;;;;;;;;5034723;28;20025;-66
2021/04/26 06:42:54;;;;;;;7.15;5.28;;;;;;;;;;5035351;28;20553;-63
2021/04/26 06:45:21;;;;;;;9.05;5.88;;;;;;;;;;5034923;28;20025;-61
2021/04/26 06:47:49;;;;;;;9.02;5.50;;;;;;;;;;5035126;28;20014;-65
2021/04/26 06:50:17;;;;;;;9.88;5.95;;;;;;;;;;5034881;28;20063;-65
2021/04/26 06:52:48;;;;;;;8.52;5.55;;;;;;;;;;5034363;28;20044;-61
2021/04/26 06:55:15;;;;;;;11.38;5.40;;;;;;;;;;5035213;28;20378;-62
2021/04/26 06:57:43;;;;;;;7.15;5.20;;;;;;;;;;5034409;28;20021;-61
2021/04/26 07:00:11;;;;;;;9.02;6.10;;;;;;;;;;5034316;28;20045;-64
2021/04/26 07:02:38;;;;;;;7.82;5.22;;;;;;;;;;5034430;28;20388;-61
2021/04/26 07:05:05;;;;;;;11.02;5.70;;;;;;;;;;5034902;28;20539;-63
2021/04/26 07:07:32;;;;;;;7.97;5.03;;;;;;;;;;5034168;28;20043;-59
2021/04/26 07:09:59;;;;;;;7.32;5.05;;;;;;;;;;5034606;28;20022;-62
2021/04/26 07:12:26;;;;;;;8.43;5.35;;;;;;;;;;5034087;28;20156;-64
2021/04/26 07:14:53;;;;;;;9.00;4.60;;;;;;;;;;5034682;28;20014;-59
2021/04/26 07:17:23;;;;;;;7.88;4.75;;;;;;;;;;5034397;28;20480;-62
2021/04/26 07:19:50;;;;;;;8.35;5.05;;;;;;;;;;5034119;28;20025;-61
2021/04/26 07:22:17;;;;;;;9.63;5.30;;;;;;;;;;5033942;28;20025;-60
2021/04/26 07:24:45;;;;;;;9.18;5.20;;;;;;;;;;5016901;28;20025;-61
2021/04/26 07:27:12;;;;;;;7.22;4.80;;;;;;;;;;5034423;28;20024;-62
2021/04/26 07:29:39;;;;;;;6.97;4.68;;;;;;;;;;5033668;28;20504;-62
2021/04/26 07:32:06;;;;;;;8.73;4.90;;;;;;;;;;5034266;28;20359;-60
2021/04/26 07:34:33;;;;;;;8.07;4.88;;;;;;;;;;5034120;28;20025;-60
2021/04/26 07:37:00;;;;;;;7.43;4.78;;;;;;;;;;5034371;28;20038;-60
2021/04/26 07:39:27;;;;;;;6.90;4.30;;;;;;;;;;5033474;28;20033;-60
2021/04/26 07:41:55;;;;;;;8.32;5.43;;;;;;;;;;5034375;28;20092;-60
2021/04/26 07:44:22;;;;;;;6.15;4.43;;;;;;;;;;5033592;28;20497;-62
2021/04/26 07:46:49;;;;;;;8.30;5.00;;;;;;;;;;5034163;28;20018;-59
2021/04/26 07:49:16;;;;;;;8.85;4.85;;;;;;;;;;5033485;28;20071;-60
2021/04/26 07:51:43;;;;;;;7.00;4.65;;;;;;;;;;5033914;28;20022;-61
2021/04/26 07:54:10;;;;;;;8.40;5.05;;;;;;;;;;5033519;28;20481;-61
2021/04/26 07:56:37;;;;;;;8.07;5.05;;;;;;;;;;5033944;28;20057;-62
2021/04/26 07:59:04;;;;;;;8.05;4.57;;;;;;;;;;5033045;28;20131;-60
2021/04/26 08:01:31;;;;;;;6.53;4.55;;;;;;;;;;5033755;28;20120;-60
2021/04/26 08:03:58;;;;;;;6.15;4.22;;;;;;;;;;5034007;28;20013;-60
2021/04/26 08:06:25;;;;;;;6.47;4.50;;;;;;;;;;5033270;28;20440;-62
2021/04/26 08:08:52;;;;;;;9.13;4.32;;;;;;;;;;5033479;28;20048;-61
2021/04/26 08:11:19;;;;;;;7.38;4.47;;;;;;;;;;5033100;28;20094;-61
2021/04/26 08:13:46;;;;;;;8.07;4.38;;;;;;;;;;5033406;28;20092;-62
2021/04/26 08:16:14;;;;;;;5.35;3.95;;;;;;;;;;5033180;28;20129;-62
2021/04/26 08:18:41;;;;;;;6.93;4.07;;;;;;;;;;5033294;28;20021;-61
2021/04/26 08:21:08;;;;;;;7.32;4.20;;;;;;;;;;5032854;28;20037;-64
2021/04/26 08:23:37;;;;;;;5.78;4.13;;;;;;;;;;5033356;28;20025;-63
2021/04/26 08:26:04;;;;;;;5.63;3.80;;;;;;;;;;5032829;28;20040;-60
2021/04/26 08:28:37;;;;;;;6.05;4.10;;;;;;;;;;5033091;28;20033;-62
2021/04/26 08:31:08;;;;;;;6.82;3.83;;;;;;;;;;5032459;28;20025;-60
2021/04/26 08:33:44;;;;;;;6.25;4.05;;;;;;;;;;5033055;28;20380;-62
2021/04/26 08:36:11;;;;;;;6.20;3.85;;;;;;;;;;5032861;28;20046;-61
2021/04/26 08:38:39;;;;;;;5.85;4.10;;;;;;;;;;5032660;28;20501;-61
2021/04/26 08:41:12;;;;;;;6.05;3.88;;;;;;;;;;5032465;28;20029;-60
2021/04/26 08:43:40;;;;;;;6.80;3.78;;;;;;;;;;5032937;28;20099;-64
2021/04/26 08:46:07;;;;;;;4.82;3.38;;;;;;;;;;5032664;28;20049;-61
2021/04/26 08:48:34;;;;;;;6.40;4.00;;;;;;;;;;5032711;28;20029;-62
2021/04/26 08:51:02;;;;;;;4.80;3.70;;;;;;;;;;5032330;28;20021;-61
2021/04/26 08:53:29;;;;;;;6.90;3.80;;;;;;;;;;5014548;28;20037;-61
2021/04/26 08:55:56;;;;;;;5.32;3.42;;;;;;;;;;5032758;28;20028;-62
2021/04/26 08:58:25;;;;;;;4.35;3.30;;;;;;;;;;5031668;28;20041;-60
2021/04/26 09:00:53;;;;;;;6.57;3.50;;;;;;;;;;5022346;28;20060;-64
2021/04/26 09:03:30;;;;;;;5.05;3.38;;;;;;;;;;5012520;28;20057;-64
2021/04/26 09:05:57;;;;;;;5.88;3.38;;;;;;;;;;5012831;28;20021;-65
2021/04/26 09:08:24;;;;;;;6.95;3.35;;;;;;;;;;5012119;28;20101;-65
2021/04/26 09:10:52;;;;;;;6.32;3.65;;;;;;;;;;4995465;28;20052;-63
2021/04/26 09:13:24;;;;;;;4.90;3.20;;;;;;;;;;5012034;28;20409;-65
2021/04/26 09:15:52;;;;;;;3.95;2.88;;;;;;;;;;4995110;28;20418;-64
2021/04/26 09:18:19;;;;;;;4.22;3.10;;;;;;;;;;5012068;28;20035;-63
2021/04/26 09:20:46;;;;;;;5.07;3.13;;;;;;;;;;5012423;28;20025;-65
2021/04/26 09:23:17;;;;;;;4.72;3.00;;;;;;;;;;5011851;28;20061;-65
2021/04/26 09:25:44;;;;;;;4.13;3.10;;;;;;;;;;5012782;28;20584;-65
2021/04/26 09:28:11;;;;;;;5.30;3.42;;;;;;;;;;5011824;28;20022;-64
2021/04/26 09:30:39;;;;;;;4.53;3.08;;;;;;;;;;5012407;28;20068;-65
2021/04/26 09:33:16;;;;;;;4.50;2.78;;;;;;;;;;5011797;28;20041;-66
2021/04/26 09:35:44;;;;;;;4.03;2.90;;;;;;;;;;5012569;28;20050;-65
2021/04/26 09:38:27;;;;;;;4.38;2.88;;;;;;;;;;5011561;28;20022;-65
2021/04/26 09:41:12;;;;;;;3.75;2.90;;;;;;;;;;5012389;28;20025;-63
2021/04/26 09:43:40;;;;;;;4.18;2.90;;;;;;;;;;5011608;28;20028;-61
2021/04/26 09:46:08;;;;;;;3.67;2.58;;;;;;;;;;4994504;28;20025;-62
2021/04/26 09:48:35;;;;;;;4.63;2.78;;;;;;;;;;5011503;28;20363;-62
2021/04/26 09:51:05;;;;;;;4.15;2.90;;;;;;;;;;5012275;28;20448;-62
2021/04/26 09:53:41;;;;;;;4.60;2.95;;;;;;;;;;5011886;28;20084;-63
2021/04/26 09:56:16;;;;;;;3.97;2.67;;;;;;;;;;5011905;28;20478;-63
2021/04/26 09:58:44;;;;;;;4.45;2.78;;;;;;;;;;5011714;28;20052;-64
2021/04/26 10:01:11;;;;;;;5.30;2.83;;;;;;;;;;5011609;28;20025;-64
2021/04/26 10:03:38;;;;;;;3.97;2.65;;;;;;;;;;5012925;28;20547;-66
2021/04/26 10:06:06;;;;;;;3.78;2.53;;;;;;;;;;5015914;28;20069;-64
2021/04/26 10:08:33;;;;;;;4.20;2.60;;;;;;;;;;5015955;28;20257;-63
2021/04/26 10:11:00;;;;;;;3.70;2.40;;;;;;;;;;5015514;28;20052;-65
2021/04/26 10:13:27;;;;;;;3.53;2.47;;;;;;;;;;5015958;28;20053;-63
2021/04/26 10:15:58;;;;;;;3.58;2.20;;;;;;;;;;5015794;28;20084;-62
2021/04/26 10:18:30;;;;;;;3.40;2.63;;;;;;;;;;5015846;28;20040;-64
2021/04/26 10:20:57;;;;;;;4.60;2.95;;;;;;;;;;5015309;28;20022;-64
2021/04/26 10:23:38;;;;;;;3.38;2.53;;;;;;;;;;5015654;28;20042;-64
2021/04/26 10:26:05;;;;;;;4.05;2.22;;;;;;;;;;5015414;28;20026;-65
2021/04/26 10:28:39;;;;;;;2.88;1.85;;;;;;;;;;5015585;28;20113;-64
2021/04/26 10:31:10;;;;;;;4.35;2.50;;;;;;;;;;4997877;28;20030;-63
2021/04/26 10:33:58;;;;;;;4.57;2.40;;;;;;;;;;5015378;28;20095;-62
2021/04/26 10:36:43;;;;;;;6.32;2.53;;;;;;;;;;4997239;28;20032;-64
2021/04/26 10:39:20;;;;;;;3.25;1.95;;;;;;;;;;5015454;28;20022;-62
2021/04/26 10:41:47;;;;;;;3.05;2.20;;;;;;;;;;5015252;28;20021;-64
2021/04/26 10:44:15;;;;;;;3.35;2.22;;;;;;;;;;5015138;28;20026;-66
2021/04/26 10:46:42;;;;;;;3.85;2.20;;;;;;;;;;5015001;28;20026;-60
2021/04/26 10:49:09;;;;;;;2.92;2.00;;;;;;;;;;5015249;28;20579;-64
2021/04/26 10:51:37;;;;;;;3.65;2.00;;;;;;;;;;5014947;28;20057;-65
2021/04/26 10:54:05;;;;;;;3.13;2.30;;;;;;;;;;5014941;28;20041;-64
2021/04/26 10:56:33;;;;;;;3.88;2.28;;;;;;;;;;5014574;28;20029;-62
2021/04/26 10:59:12;;;;;;;3.00;1.80;;;;;;;;;;5014206;28;20050;-60
2021/04/26 11:01:46;;;;;;;3.42;2.08;;;;;;;;;;5013710;28;20367;-60
2021/04/26 11:04:13;;;;;;;2.83;2.00;;;;;;;;;;5014659;28;20350;-62
2021/04/26 11:06:41;;;;;;;3.22;2.25;;;;;;;;;;5014436;28;20037;-60
2021/04/26 11:09:18;;;;;;;3.67;1.88;;;;;;;;;;5014415;28;20057;-61
2021/04/26 11:12:00;;;;;;;2.25;1.77;;;;;;;;;;5010680;28;20042;-60
2021/04/26 11:14:29;;;;;;;4.13;2.03;;;;;;;;;;4999621;28;20029;-63
2021/04/26 11:17:02;;;;;;;3.13;1.92;;;;;;;;;;5012130;28;20280;-60
2021/04/26 11:19:29;;;;;;;2.28;1.83;;;;;;;;;;5013900;28;20025;-62
2021/04/26 11:21:57;;;;;;;3.35;2.25;;;;;;;;;;5008617;28;20027;-63
2021/04/26 11:24:25;;;;;;;5.07;2.28;;;;;;;;;;4994126;28;20058;-64
2021/04/26 11:27:10;;;;;;;4.00;2.10;;;;;;;;;;5000313;28;20482;-61
2021/04/26 11:29:45;;;;;;;2.35;1.85;;;;;;;;;;4977713;28;20379;-64
2021/04/26 11:32:13;;;;;;;5.28;2.08;;;;;;;;;;4994990;28;20041;-64
2021/04/26 11:34:50;;;;;;;2.53;1.63;;;;;;;;;;4993994;28;20026;-64
2021/04/26 11:37:18;;;;;;;3.17;1.80;;;;;;;;;;4994684;28;20073;-64
2021/04/26 11:39:46;;;;;;;3.67;1.70;;;;;;;;;;4992183;28;20026;-62
2021/04/26 11:42:20;;;;;;;2.60;1.88;;;;;;;;;;4994126;28;20070;-63
2021/04/26 11:44:47;;;;;;;3.03;1.77;;;;;;;;;;4994001;28;20084;-64
2021/04/26 11:47:16;;;;;;;3.47;1.90;;;;;;;;;;4994509;28;20069;-65
2021/04/26 11:49:47;;;;;;;3.08;1.52;;;;;;;;;;4993801;28;20026;-65
2021/04/26 11:52:16;;;;;;;5.38;1.85;;;;;;;;;;4992054;28;20557;-64
2021/04/26 11:54:43;;;;;;;4.07;2.00;;;;;;;;;;4992173;28;20033;-64
2021/04/26 11:57:21;;;;;;;4.15;2.00;;;;;;;;;;4994231;28;20021;-65
2021/04/26 11:59:53;;;;;;;3.63;1.80;;;;;;;;;;5012553;28;20045;-62
2021/04/26 12:02:26;;;;;;;3.50;1.70;;;;;;;;;;5013617;28;20018;-64
2021/04/26 12:04:53;;;;;;;3.60;1.67;;;;;;;;;;4993637;28;20030;-64
2021/04/26 12:07:20;;;;;;;2.70;1.65;;;;;;;;;;5013716;28;20037;-64
2021/04/26 12:09:54;;;;;;;2.70;1.60;;;;;;;;;;5012736;28;20112;-63
2021/04/26 12:12:23;;;;;;;5.03;1.63;;;;;;;;;;5013106;28;20113;-63
2021/04/26 12:14:53;;;;;;;2.80;2.03;;;;;;;;;;4994206;28;20027;-66
2021/04/26 12:17:24;;;;;;;5.85;1.75;;;;;;;;;;5012132;28;20037;-66
2021/04/26 12:19:52;;;;;;;3.90;1.80;;;;;;;;;;5011984;28;20022;-65
2021/04/26 12:22:21;;;;;;;5.15;1.90;;;;;;;;;;5012770;28;20041;-64
2021/04/26 12:24:49;;;;;;;3.13;1.40;;;;;;;;;;5010304;28;20018;-66
2021/04/26 12:27:17;;;;;;;6.57;1.80;;;;;;;;;;5009526;28;20078;-66
2021/04/26 12:29:45;;;;;;;5.68;1.65;;;;;;;;;;5012272;28;20104;-66
2021/04/26 12:32:13;;;;;;;4.07;1.95;;;;;;;;;;5011465;28;20037;-68
2021/04/26 12:34:48;;;;;;;3.30;1.60;;;;;;;;;;5012012;28;20037;-63
2021/04/26 12:37:15;;;;;;;4.97;2.08;;;;;;;;;;5012330;28;20026;-66
2021/04/26 12:39:42;;;;;;;4.72;1.77;;;;;;;;;;5007748;28;20021;-66
2021/04/26 12:42:10;;;;;;;3.17;1.58;;;;;;;;;;5009342;28;20037;-64
2021/04/26 12:44:37;;;;;;;7.03;1.77;;;;;;;;;;5011765;28;20022;-65
2021/04/26 12:47:17;;;;;;;7.60;1.92;;;;;;;;;;5011520;28;20574;-62
2021/04/26 12:49:44;;;;;;;2.90;1.70;;;;;;;;;;5007066;28;20034;-62
2021/04/26 12:52:20;;;;;;;3.20;1.60;;;;;;;;;;4993431;28;20069;-61
2021/04/26 12:55:22;;;;;;;2.10;1.40;;;;;;;;;;5012659;28;20025;-61
2021/04/26 12:57:52;;;;;;;3.78;1.40;;;;;;;;;;4931666;29;20114;-67
2021/04/26 13:00:19;;;;;;;2.72;1.35;;;;;;;;;;4998042;28;20046;-66
2021/04/26 13:02:46;;;;;;;5.10;1.52;;;;;;;;;;4989430;28;20049;-67
2021/04/26 13:05:14;;;;;;;4.00;1.23;;;;;;;;;;4992260;28;20097;-66
2021/04/26 13:07:41;;;;;;;2.53;1.52;;;;;;;;;;5012013;28;20557;-65
2021/04/26 13:10:09;;;;;;;7.72;2.00;;;;;;;;;;5011226;28;20037;-64
2021/04/26 13:12:37;;;;;;;6.10;1.48;;;;;;;;;;4991143;28;20486;-65
2021/04/26 13:15:22;;;;;;;5.25;1.48;;;;;;;;;;5008793;28;20026;-66
2021/04/26 13:17:49;;;;;;;9.18;1.70;;;;;;;;;;5010932;28;20029;-65
2021/04/26 13:20:20;;;;;;;4.25;1.50;;;;;;;;;;5011772;28;20026;-66
2021/04/26 13:22:47;;;;;;;5.18;1.10;;;;;;;;;;5011924;28;20032;-64
2021/04/26 13:25:14;;;;;;;8.32;1.63;;;;;;;;;;5011853;28;20026;-67
2021/04/26 13:27:47;;;;;;;6.82;1.48;;;;;;;;;;5009876;28;20030;-65
2021/04/26 13:30:19;;;;;;;6.18;1.90;;;;;;;;;;4993817;28;20045;-61
2021/04/26 13:32:46;;;;;;;18.17;1.70;;;;;;;;;;4994096;28;20037;-62
2021/04/26 13:35:13;;;;;;;7.25;1.83;;;;;;;;;;5008320;28;20077;-60
2021/04/26 13:37:41;;;;;;;3.47;1.58;;;;;;;;;;5010701;28;20045;-60
2021/04/26 13:40:09;;;;;;;4.22;1.33;;;;;;;;;;5009305;28;20060;-60
2021/04/26 13:42:36;;;;;;;4.20;1.30;;;;;;;;;;5011517;28;20114;-60
2021/04/26 13:45:03;;;;;;;3.67;1.20;;;;;;;;;;5008142;28;20033;-60
2021/04/26 13:47:30;;;;;;;9.13;1.48;;;;;;;;;;5010944;28;20113;-60
2021/04/26 13:49:57;;;;;;;3.15;1.25;;;;;;;;;;5009525;28;20033;-60
2021/04/26 13:52:24;;;;;;;5.57;2.05;;;;;;;;;;5007658;28;20025;-62
2021/04/26 13:54:51;;;;;;;6.28;1.45;;;;;;;;;;5010615;28;20439;-61
2021/04/26 13:57:18;;;;;;;2.38;1.33;;;;;;;;;;5011271;28;20014;-60
2021/04/26 13:59:45;;;;;;;4.65;1.27;;;;;;;;;;5010297;28;20050;-60
2021/04/26 14:02:12;;;;;;;5.03;1.00;;;;;;;;;;4991592;28;20471;-59
2021/04/26 14:04:39;;;;;;;8.35;1.27;;;;;;;;;;5009823;28;20498;-60
2021/04/26 14:07:06;;;;;;;3.88;1.30;;;;;;;;;;5011234;28;20053;-60
2021/04/26 14:09:34;;;;;;;4.28;1.25;;;;;;;;;;5010920;28;20034;-60
2021/04/26 14:12:01;;;;;;;3.72;1.00;;;;;;;;;;5010409;28;20408;-62
2021/04/26 14:14:28;;;;;;;3.83;1.23;;;;;;;;;;4982842;28;20056;-61
2021/04/26 14:16:55;;;;;;;11.55;1.40;;;;;;;;;;5002028;28;20018;-60
2021/04/26 14:19:22;;;;;;;6.80;1.95;;;;;;;;;;5011371;28;20025;-61
2021/04/26 14:21:49;;;;;;;7.50;1.73;;;;;;;;;;5010931;28;20432;-60
2021/04/26 14:24:16;;;;;;;6.35;1.10;;;;;;;;;;5011493;28;20077;-60
2021/04/26 14:26:44;;;;;;;20.90;1.67;;;;;;;;;;5001768;28;20018;-62
2021/04/26 14:29:11;;;;;;;6.65;1.23;;;;;;;;;;5011233;28;20026;-61
2021/04/26 14:31:38;;;;;;;18.10;1.58;;;;;;;;;;5009918;28;20033;-62
2021/04/26 14:34:05;;;;;;;7.38;1.30;;;;;;;;;;5010928;28;20037;-60
2021/04/26 14:36:32;;;;;;;6.68;1.25;;;;;;;;;;5010518;28;20036;-61
2021/04/26 14:38:59;;;;;;;9.95;1.05;;;;;;;;;;5008374;28;20084;-66
2021/04/26 14:41:26;;;;;;;6.47;0.95;;;;;;;;;;5011002;28;20014;-66
2021/04/26 14:43:53;;;;;;;6.50;1.48;;;;;;;;;;5011245;28;20386;-66
2021/04/26 14:46:22;;;;;;;5.65;1.23;;;;;;;;;;4989396;28;20029;-63